< < Back
Terminal Aerodrome Forecast


Current Version              Previous Versions:   1  2  3  4  5  6  7  8  9  

Terminal Aerodrome Forecast

184
FTUS42 KILM 130749 AAA
TAFILM
TAF AMD
KILM 130749Z 1308/1406 31006KT 4SM BR OVC002
     FM131000 33007KT P6SM FEW250
     FM131400 34015G24KT P6SM SKC
     FM132200 32011KT P6SM SKC
     FM140200 35006KT P6SM SKC=



Latest METAR

414
SAUS70 KWBC 131700 RRL
MTRILM
METAR KILM 131653Z AUTO 33016KT 10SM CLR 05/M08 A3027 RMK AO2 SLP250
T00501078


USA.gov is the U.S. government's official web portal to all federal, state and local government web resources and services.